Raleigh, North Carolina
Current Conditions -  °F | °C
As of 10:51 PM on Saturday 24 Jan 2015 (Local Time) from KRDU Reporting Station
Clear Clear  
Wind Chill: 37°   Ceiling: Unl
Heat Index: 37°   Visibility: 10mi
Dew Point: 24°   Wind: 0mph
Humidity: 59%   Direction: NA
Pressure: 29.8"   Gusts: NA
Location:  35.79°N, 78.64°W
Report Text: KRDU 250351Z 00000KT 10SM CLR 03/M04 A2980 RMK AO2 SLP094 T00281044 $
Loading
Personal Weather Stations






























Interactive Weather Map New forecast layout! Learn more

10-Day Weather Forecast

Advertisements
Track Severe Weather on mobile